sensor_id;sensor_type;location;lat;lon;timestamp;temperature;humidity
78514;SHT31;67814;51.976;5.810;2023-10-31T00:00:54;13.3;75.3
78514;SHT31;67814;51.976;5.810;2023-10-31T00:03:23;13.2;75.9
78514;SHT31;67814;51.976;5.810;2023-10-31T00:05:51;13.2;76.1
78514;SHT31;67814;51.976;5.810;2023-10-31T00:08:20;13.1;76.3
78514;SHT31;67814;51.976;5.810;2023-10-31T00:10:50;13.1;76.8
78514;SHT31;67814;51.976;5.810;2023-10-31T00:13:19;13.1;76.4
78514;SHT31;67814;51.976;5.810;2023-10-31T00:15:47;13.0;77.0
78514;SHT31;67814;51.976;5.810;2023-10-31T00:18:16;13.0;77.7
78514;SHT31;67814;51.976;5.810;2023-10-31T00:20:46;13.0;77.1
78514;SHT31;67814;51.976;5.810;2023-10-31T00:23:15;12.9;77.3
78514;SHT31;67814;51.976;5.810;2023-10-31T00:25:44;12.9;77.7
78514;SHT31;67814;51.976;5.810;2023-10-31T00:28:12;12.9;78.0
78514;SHT31;67814;51.976;5.810;2023-10-31T00:30:41;12.9;77.6
78514;SHT31;67814;51.976;5.810;2023-10-31T00:33:09;12.9;77.7
78514;SHT31;67814;51.976;5.810;2023-10-31T00:35:38;12.9;77.9
78514;SHT31;67814;51.976;5.810;2023-10-31T00:38:06;12.9;77.5
78514;SHT31;67814;51.976;5.810;2023-10-31T00:40:35;12.9;77.2
78514;SHT31;67814;51.976;5.810;2023-10-31T00:43:03;13.0;76.7
78514;SHT31;67814;51.976;5.810;2023-10-31T00:45:32;13.0;75.9
78514;SHT31;67814;51.976;5.810;2023-10-31T00:48:00;12.9;76.2
78514;SHT31;67814;51.976;5.810;2023-10-31T00:50:29;12.9;76.1
78514;SHT31;67814;51.976;5.810;2023-10-31T00:52:59;12.9;75.6
78514;SHT31;67814;51.976;5.810;2023-10-31T00:55:28;12.9;76.1
78514;SHT31;67814;51.976;5.810;2023-10-31T00:57:56;12.9;76.2
78514;SHT31;67814;51.976;5.810;2023-10-31T01:00:25;12.9;77.0
78514;SHT31;67814;51.976;5.810;2023-10-31T01:02:54;12.9;76.7
78514;SHT31;67814;51.976;5.810;2023-10-31T01:05:22;12.9;76.6
78514;SHT31;67814;51.976;5.810;2023-10-31T01:07:51;12.9;76.8
78514;SHT31;67814;51.976;5.810;2023-10-31T01:10:19;12.9;76.8
78514;SHT31;67814;51.976;5.810;2023-10-31T01:12:49;12.9;76.2
78514;SHT31;67814;51.976;5.810;2023-10-31T01:15:17;13.0;75.8
78514;SHT31;67814;51.976;5.810;2023-10-31T01:17:46;13.0;76.2
78514;SHT31;67814;51.976;5.810;2023-10-31T01:20:14;13.0;76.0
78514;SHT31;67814;51.976;5.810;2023-10-31T01:22:43;13.0;76.1
78514;SHT31;67814;51.976;5.810;2023-10-31T01:25:13;13.0;76.2
78514;SHT31;67814;51.976;5.810;2023-10-31T01:27:42;13.0;76.5
78514;SHT31;67814;51.976;5.810;2023-10-31T01:30:12;13.0;76.5
78514;SHT31;67814;51.976;5.810;2023-10-31T01:32:40;13.1;76.8
78514;SHT31;67814;51.976;5.810;2023-10-31T01:35:11;13.1;76.1
78514;SHT31;67814;51.976;5.810;2023-10-31T01:37:42;13.1;76.6
78514;SHT31;67814;51.976;5.810;2023-10-31T01:40:14;13.1;76.6
78514;SHT31;67814;51.976;5.810;2023-10-31T01:42:42;13.1;76.4
78514;SHT31;67814;51.976;5.810;2023-10-31T01:45:11;13.1;76.4
78514;SHT31;67814;51.976;5.810;2023-10-31T01:47:40;13.2;76.4
78514;SHT31;67814;51.976;5.810;2023-10-31T01:50:08;13.2;76.3
78514;SHT31;67814;51.976;5.810;2023-10-31T01:52:38;13.2;76.1
78514;SHT31;67814;51.976;5.810;2023-10-31T01:55:07;13.2;76.2
78514;SHT31;67814;51.976;5.810;2023-10-31T01:57:39;13.2;76.3
78514;SHT31;67814;51.976;5.810;2023-10-31T02:00:08;13.2;76.2
78514;SHT31;67814;51.976;5.810;2023-10-31T02:02:40;13.3;76.5
78514;SHT31;67814;51.976;5.810;2023-10-31T02:05:10;13.3;76.6
78514;SHT31;67814;51.976;5.810;2023-10-31T02:07:38;13.3;76.1
78514;SHT31;67814;51.976;5.810;2023-10-31T02:10:07;13.3;75.8
78514;SHT31;67814;51.976;5.810;2023-10-31T02:12:37;13.3;75.6
78514;SHT31;67814;51.976;5.810;2023-10-31T02:15:08;13.4;75.7
78514;SHT31;67814;51.976;5.810;2023-10-31T02:17:38;13.4;76.1
78514;SHT31;67814;51.976;5.810;2023-10-31T02:20:07;13.4;76.0
78514;SHT31;67814;51.976;5.810;2023-10-31T02:22:36;13.4;76.0
78514;SHT31;67814;51.976;5.810;2023-10-31T02:25:18;13.4;75.6
78514;SHT31;67814;51.976;5.810;2023-10-31T02:27:46;13.5;75.5
78514;SHT31;67814;51.976;5.810;2023-10-31T02:30:15;13.5;75.7
78514;SHT31;67814;51.976;5.810;2023-10-31T02:32:44;13.5;75.5
78514;SHT31;67814;51.976;5.810;2023-10-31T02:35:13;13.5;75.4
78514;SHT31;67814;51.976;5.810;2023-10-31T02:37:42;13.5;75.1
78514;SHT31;67814;51.976;5.810;2023-10-31T02:40:11;13.5;75.2
78514;SHT31;67814;51.976;5.810;2023-10-31T02:42:40;13.5;75.3
78514;SHT31;67814;51.976;5.810;2023-10-31T02:45:09;13.5;75.6
78514;SHT31;67814;51.976;5.810;2023-10-31T02:47:38;13.5;75.6
78514;SHT31;67814;51.976;5.810;2023-10-31T02:50:07;13.5;75.5
78514;SHT31;67814;51.976;5.810;2023-10-31T02:52:37;13.5;75.5
78514;SHT31;67814;51.976;5.810;2023-10-31T02:55:06;13.5;75.9
78514;SHT31;67814;51.976;5.810;2023-10-31T02:57:34;13.5;76.2
78514;SHT31;67814;51.976;5.810;2023-10-31T03:00:03;13.5;75.8
78514;SHT31;67814;51.976;5.810;2023-10-31T03:02:32;13.5;75.7
78514;SHT31;67814;51.976;5.810;2023-10-31T03:05:01;13.5;75.9
78514;SHT31;67814;51.976;5.810;2023-10-31T03:07:30;13.5;75.8
78514;SHT31;67814;51.976;5.810;2023-10-31T03:09:58;13.5;75.9
78514;SHT31;67814;51.976;5.810;2023-10-31T03:12:27;13.5;76.1
78514;SHT31;67814;51.976;5.810;2023-10-31T03:14:56;13.5;76.3
78514;SHT31;67814;51.976;5.810;2023-10-31T03:17:25;13.4;76.3
78514;SHT31;67814;51.976;5.810;2023-10-31T03:19:54;13.4;76.5
78514;SHT31;67814;51.976;5.810;2023-10-31T03:22:24;13.4;76.7
78514;SHT31;67814;51.976;5.810;2023-10-31T03:24:53;13.4;76.7
78514;SHT31;67814;51.976;5.810;2023-10-31T03:27:22;13.4;76.9
78514;SHT31;67814;51.976;5.810;2023-10-31T03:29:51;13.4;76.4
78514;SHT31;67814;51.976;5.810;2023-10-31T03:32:19;13.4;76.4
78514;SHT31;67814;51.976;5.810;2023-10-31T03:34:48;13.3;76.5
78514;SHT31;67814;51.976;5.810;2023-10-31T03:37:16;13.3;76.8
78514;SHT31;67814;51.976;5.810;2023-10-31T03:39:45;13.3;76.9
78514;SHT31;67814;51.976;5.810;2023-10-31T03:42:13;13.2;76.9
78514;SHT31;67814;51.976;5.810;2023-10-31T03:44:42;13.2;77.0
78514;SHT31;67814;51.976;5.810;2023-10-31T03:47:11;13.1;77.1
78514;SHT31;67814;51.976;5.810;2023-10-31T03:49:40;13.1;77.1
78514;SHT31;67814;51.976;5.810;2023-10-31T03:52:08;13.1;77.7
78514;SHT31;67814;51.976;5.810;2023-10-31T03:54:37;13.1;77.6
78514;SHT31;67814;51.976;5.810;2023-10-31T03:57:06;13.1;77.6
78514;SHT31;67814;51.976;5.810;2023-10-31T03:59:36;13.1;77.7
78514;SHT31;67814;51.976;5.810;2023-10-31T04:02:05;13.1;77.8
78514;SHT31;67814;51.976;5.810;2023-10-31T04:04:34;13.1;77.6
78514;SHT31;67814;51.976;5.810;2023-10-31T04:07:02;13.1;77.4
78514;SHT31;67814;51.976;5.810;2023-10-31T04:09:31;13.1;77.0
78514;SHT31;67814;51.976;5.810;2023-10-31T04:11:59;13.1;77.2
78514;SHT31;67814;51.976;5.810;2023-10-31T04:14:28;13.1;77.3
78514;SHT31;67814;51.976;5.810;2023-10-31T04:16:56;13.1;77.5
78514;SHT31;67814;51.976;5.810;2023-10-31T04:19:25;13.1;77.3
78514;SHT31;67814;51.976;5.810;2023-10-31T04:21:54;13.1;76.9
78514;SHT31;67814;51.976;5.810;2023-10-31T04:24:22;13.1;76.7
78514;SHT31;67814;51.976;5.810;2023-10-31T04:26:51;13.1;76.8
78514;SHT31;67814;51.976;5.810;2023-10-31T04:29:19;13.1;77.0
78514;SHT31;67814;51.976;5.810;2023-10-31T04:31:48;13.1;76.8
78514;SHT31;67814;51.976;5.810;2023-10-31T04:34:16;13.0;77.1
78514;SHT31;67814;51.976;5.810;2023-10-31T04:36:45;13.0;77.4
78514;SHT31;67814;51.976;5.810;2023-10-31T04:39:13;13.0;77.5
78514;SHT31;67814;51.976;5.810;2023-10-31T04:41:42;13.0;77.5
78514;SHT31;67814;51.976;5.810;2023-10-31T04:44:11;13.0;77.9
78514;SHT31;67814;51.976;5.810;2023-10-31T04:46:40;12.9;77.6
78514;SHT31;67814;51.976;5.810;2023-10-31T04:49:08;12.9;77.9
78514;SHT31;67814;51.976;5.810;2023-10-31T04:51:38;12.9;78.0
78514;SHT31;67814;51.976;5.810;2023-10-31T04:54:06;12.9;78.1
78514;SHT31;67814;51.976;5.810;2023-10-31T04:56:36;12.8;78.3
78514;SHT31;67814;51.976;5.810;2023-10-31T04:59:05;12.8;78.3
78514;SHT31;67814;51.976;5.810;2023-10-31T05:01:33;12.8;78.2
78514;SHT31;67814;51.976;5.810;2023-10-31T05:04:02;12.8;78.1
78514;SHT31;67814;51.976;5.810;2023-10-31T05:06:31;12.8;78.0
78514;SHT31;67814;51.976;5.810;2023-10-31T05:08:59;12.8;77.7
78514;SHT31;67814;51.976;5.810;2023-10-31T05:11:28;12.8;77.9
78514;SHT31;67814;51.976;5.810;2023-10-31T05:13:56;12.8;78.2
78514;SHT31;67814;51.976;5.810;2023-10-31T05:16:25;12.8;78.0
78514;SHT31;67814;51.976;5.810;2023-10-31T05:18:53;12.9;77.9
78514;SHT31;67814;51.976;5.810;2023-10-31T05:21:25;12.9;77.7
78514;SHT31;67814;51.976;5.810;2023-10-31T05:23:54;12.9;77.3
78514;SHT31;67814;51.976;5.810;2023-10-31T05:26:23;12.9;77.3
78514;SHT31;67814;51.976;5.810;2023-10-31T05:28:51;12.9;77.2
78514;SHT31;67814;51.976;5.810;2023-10-31T05:31:20;12.9;77.3
78514;SHT31;67814;51.976;5.810;2023-10-31T05:33:48;13.0;77.4
78514;SHT31;67814;51.976;5.810;2023-10-31T05:36:21;13.0;77.1
78514;SHT31;67814;51.976;5.810;2023-10-31T05:38:50;13.0;76.9
78514;SHT31;67814;51.976;5.810;2023-10-31T05:41:21;13.0;76.8
78514;SHT31;67814;51.976;5.810;2023-10-31T05:43:52;13.0;76.7
78514;SHT31;67814;51.976;5.810;2023-10-31T05:46:21;13.0;76.8
78514;SHT31;67814;51.976;5.810;2023-10-31T05:48:49;13.0;76.6
78514;SHT31;67814;51.976;5.810;2023-10-31T05:51:18;13.0;76.6
78514;SHT31;67814;51.976;5.810;2023-10-31T05:53:48;13.0;76.7
78514;SHT31;67814;51.976;5.810;2023-10-31T05:56:16;13.0;76.3
78514;SHT31;67814;51.976;5.810;2023-10-31T05:58:47;13.0;76.3
78514;SHT31;67814;51.976;5.810;2023-10-31T06:01:15;13.0;76.3
78514;SHT31;67814;51.976;5.810;2023-10-31T06:03:44;12.9;76.1
78514;SHT31;67814;51.976;5.810;2023-10-31T06:06:14;12.9;75.9
78514;SHT31;67814;51.976;5.810;2023-10-31T06:08:43;12.9;75.9
78514;SHT31;67814;51.976;5.810;2023-10-31T06:11:11;12.9;75.9
78514;SHT31;67814;51.976;5.810;2023-10-31T06:13:42;12.9;75.6
78514;SHT31;67814;51.976;5.810;2023-10-31T06:16:11;12.9;75.7
78514;SHT31;67814;51.976;5.810;2023-10-31T06:18:40;12.9;75.7
78514;SHT31;67814;51.976;5.810;2023-10-31T06:21:08;12.8;75.9
78514;SHT31;67814;51.976;5.810;2023-10-31T06:23:38;12.8;75.8
78514;SHT31;67814;51.976;5.810;2023-10-31T06:26:07;12.8;75.8
78514;SHT31;67814;51.976;5.810;2023-10-31T06:28:38;12.8;75.5
78514;SHT31;67814;51.976;5.810;2023-10-31T06:31:06;12.8;75.7
78514;SHT31;67814;51.976;5.810;2023-10-31T06:33:35;12.8;75.6
78514;SHT31;67814;51.976;5.810;2023-10-31T06:36:04;12.8;75.7
78514;SHT31;67814;51.976;5.810;2023-10-31T06:38:33;12.8;75.9
78514;SHT31;67814;51.976;5.810;2023-10-31T06:41:02;12.8;75.8
78514;SHT31;67814;51.976;5.810;2023-10-31T06:43:30;12.8;75.7
78514;SHT31;67814;51.976;5.810;2023-10-31T06:45:59;12.8;76.0
78514;SHT31;67814;51.976;5.810;2023-10-31T06:48:29;12.8;76.1
78514;SHT31;67814;51.976;5.810;2023-10-31T06:50:58;12.8;76.5
78514;SHT31;67814;51.976;5.810;2023-10-31T06:53:26;12.8;76.4
78514;SHT31;67814;51.976;5.810;2023-10-31T06:55:55;12.8;76.9
78514;SHT31;67814;51.976;5.810;2023-10-31T06:58:23;12.8;77.1
78514;SHT31;67814;51.976;5.810;2023-10-31T07:00:52;12.8;77.1
78514;SHT31;67814;51.976;5.810;2023-10-31T07:03:21;12.8;76.9
78514;SHT31;67814;51.976;5.810;2023-10-31T07:05:49;12.9;77.0
78514;SHT31;67814;51.976;5.810;2023-10-31T07:08:19;12.9;77.1
78514;SHT31;67814;51.976;5.810;2023-10-31T07:10:47;12.9;77.2
78514;SHT31;67814;51.976;5.810;2023-10-31T07:13:16;12.9;77.1
78514;SHT31;67814;51.976;5.810;2023-10-31T07:15:45;12.9;77.1
78514;SHT31;67814;51.976;5.810;2023-10-31T07:18:13;12.9;77.6
78514;SHT31;67814;51.976;5.810;2023-10-31T07:20:42;12.9;77.7
78514;SHT31;67814;51.976;5.810;2023-10-31T07:23:11;12.9;77.4
78514;SHT31;67814;51.976;5.810;2023-10-31T07:25:39;13.0;77.4
78514;SHT31;67814;51.976;5.810;2023-10-31T07:28:08;13.0;77.0
78514;SHT31;67814;51.976;5.810;2023-10-31T07:30:36;13.0;76.8
78514;SHT31;67814;51.976;5.810;2023-10-31T07:33:05;13.1;76.5
78514;SHT31;67814;51.976;5.810;2023-10-31T07:35:33;13.1;76.7
78514;SHT31;67814;51.976;5.810;2023-10-31T07:38:02;13.1;76.6
78514;SHT31;67814;51.976;5.810;2023-10-31T07:40:31;13.1;76.7
78514;SHT31;67814;51.976;5.810;2023-10-31T07:42:59;13.1;76.6
78514;SHT31;67814;51.976;5.810;2023-10-31T07:45:28;13.2;76.7
78514;SHT31;67814;51.976;5.810;2023-10-31T07:47:56;13.2;76.7
78514;SHT31;67814;51.976;5.810;2023-10-31T07:50:25;13.2;76.6
78514;SHT31;67814;51.976;5.810;2023-10-31T07:52:54;13.2;76.9
78514;SHT31;67814;51.976;5.810;2023-10-31T07:55:22;13.3;76.7
78514;SHT31;67814;51.976;5.810;2023-10-31T07:57:51;13.3;76.6
78514;SHT31;67814;51.976;5.810;2023-10-31T08:00:20;13.4;76.9
78514;SHT31;67814;51.976;5.810;2023-10-31T08:02:49;13.4;76.7
78514;SHT31;67814;51.976;5.810;2023-10-31T08:05:18;13.4;76.4
78514;SHT31;67814;51.976;5.810;2023-10-31T08:07:48;13.5;76.6
78514;SHT31;67814;51.976;5.810;2023-10-31T08:10:19;13.5;76.3
78514;SHT31;67814;51.976;5.810;2023-10-31T08:12:47;13.5;76.3
78514;SHT31;67814;51.976;5.810;2023-10-31T08:15:16;13.6;76.7
78514;SHT31;67814;51.976;5.810;2023-10-31T08:17:45;13.6;77.7
78514;SHT31;67814;51.976;5.810;2023-10-31T08:20:13;13.7;77.5
78514;SHT31;67814;51.976;5.810;2023-10-31T08:22:42;13.7;77.1
78514;SHT31;67814;51.976;5.810;2023-10-31T08:25:11;13.8;76.8
78514;SHT31;67814;51.976;5.810;2023-10-31T08:27:39;13.9;77.2
78514;SHT31;67814;51.976;5.810;2023-10-31T08:30:11;13.9;76.5
78514;SHT31;67814;51.976;5.810;2023-10-31T08:32:40;14.0;76.5
78514;SHT31;67814;51.976;5.810;2023-10-31T08:35:10;14.1;76.0
78514;SHT31;67814;51.976;5.810;2023-10-31T08:37:38;14.1;75.4
78514;SHT31;67814;51.976;5.810;2023-10-31T08:40:08;14.2;74.9
78514;SHT31;67814;51.976;5.810;2023-10-31T08:42:37;14.2;74.8
78514;SHT31;67814;51.976;5.810;2023-10-31T08:45:06;14.3;74.2
78514;SHT31;67814;51.976;5.810;2023-10-31T08:47:34;14.3;73.8
78514;SHT31;67814;51.976;5.810;2023-10-31T08:50:04;14.3;74.0
78514;SHT31;67814;51.976;5.810;2023-10-31T08:52:34;14.3;74.5
78514;SHT31;67814;51.976;5.810;2023-10-31T08:55:03;14.3;74.2
78514;SHT31;67814;51.976;5.810;2023-10-31T08:57:32;14.3;74.3
78514;SHT31;67814;51.976;5.810;2023-10-31T09:00:02;14.3;74.4
78514;SHT31;67814;51.976;5.810;2023-10-31T09:02:31;14.3;74.4
78514;SHT31;67814;51.976;5.810;2023-10-31T09:05:00;14.4;74.9
78514;SHT31;67814;51.976;5.810;2023-10-31T09:07:28;14.4;75.3
78514;SHT31;67814;51.976;5.810;2023-10-31T09:09:57;14.4;75.4
78514;SHT31;67814;51.976;5.810;2023-10-31T09:12:26;14.5;75.6
78514;SHT31;67814;51.976;5.810;2023-10-31T09:14:54;14.6;75.8
78514;SHT31;67814;51.976;5.810;2023-10-31T09:17:23;14.7;76.0
78514;SHT31;67814;51.976;5.810;2023-10-31T09:19:51;14.8;75.3
78514;SHT31;67814;51.976;5.810;2023-10-31T09:22:21;14.9;74.9
78514;SHT31;67814;51.976;5.810;2023-10-31T09:24:49;15.0;75.1
78514;SHT31;67814;51.976;5.810;2023-10-31T09:27:18;15.1;74.7
78514;SHT31;67814;51.976;5.810;2023-10-31T09:29:46;15.1;74.1
78514;SHT31;67814;51.976;5.810;2023-10-31T09:32:16;15.2;73.9
78514;SHT31;67814;51.976;5.810;2023-10-31T09:34:44;15.3;72.8
78514;SHT31;67814;51.976;5.810;2023-10-31T09:37:14;15.3;71.9
78514;SHT31;67814;51.976;5.810;2023-10-31T09:39:43;15.4;72.5
78514;SHT31;67814;51.976;5.810;2023-10-31T09:42:11;15.4;73.3
78514;SHT31;67814;51.976;5.810;2023-10-31T09:44:40;15.4;73.1
78514;SHT31;67814;51.976;5.810;2023-10-31T09:47:09;15.5;70.9
78514;SHT31;67814;51.976;5.810;2023-10-31T09:49:40;15.5;71.0
78514;SHT31;67814;51.976;5.810;2023-10-31T09:52:10;15.5;71.6
78514;SHT31;67814;51.976;5.810;2023-10-31T09:54:39;15.6;72.2
78514;SHT31;67814;51.976;5.810;2023-10-31T09:57:09;15.6;71.5
78514;SHT31;67814;51.976;5.810;2023-10-31T09:59:38;15.6;71.3
78514;SHT31;67814;51.976;5.810;2023-10-31T10:02:07;15.6;70.9
78514;SHT31;67814;51.976;5.810;2023-10-31T10:04:37;15.7;70.9
78514;SHT31;67814;51.976;5.810;2023-10-31T10:07:08;15.7;71.1
78514;SHT31;67814;51.976;5.810;2023-10-31T10:09:38;15.7;70.7
78514;SHT31;67814;51.976;5.810;2023-10-31T10:12:11;15.7;71.7
78514;SHT31;67814;51.976;5.810;2023-10-31T10:14:40;15.7;71.6
78514;SHT31;67814;51.976;5.810;2023-10-31T10:17:20;15.7;71.2
78514;SHT31;67814;51.976;5.810;2023-10-31T10:20:06;15.7;69.6
78514;SHT31;67814;51.976;5.810;2023-10-31T10:22:39;15.7;70.0
78514;SHT31;67814;51.976;5.810;2023-10-31T10:25:09;15.7;69.8
78514;SHT31;67814;51.976;5.810;2023-10-31T10:27:40;15.7;69.7
78514;SHT31;67814;51.976;5.810;2023-10-31T10:30:10;15.6;70.2
78514;SHT31;67814;51.976;5.810;2023-10-31T10:32:39;15.6;71.0
78514;SHT31;67814;51.976;5.810;2023-10-31T10:35:10;15.6;72.3
78514;SHT31;67814;51.976;5.810;2023-10-31T10:37:39;15.6;72.1
78514;SHT31;67814;51.976;5.810;2023-10-31T10:40:10;15.7;71.8
78514;SHT31;67814;51.976;5.810;2023-10-31T10:42:44;15.7;71.0
78514;SHT31;67814;51.976;5.810;2023-10-31T10:45:16;15.8;71.7
78514;SHT31;67814;51.976;5.810;2023-10-31T10:47:48;15.9;71.1
78514;SHT31;67814;51.976;5.810;2023-10-31T10:50:19;15.9;69.9
78514;SHT31;67814;51.976;5.810;2023-10-31T10:53:03;16.0;70.1
78514;SHT31;67814;51.976;5.810;2023-10-31T10:55:39;16.1;69.1
78514;SHT31;67814;51.976;5.810;2023-10-31T10:58:21;16.1;70.2
78514;SHT31;67814;51.976;5.810;2023-10-31T11:00:51;16.2;69.3
78514;SHT31;67814;51.976;5.810;2023-10-31T11:03:24;16.2;69.3
78514;SHT31;67814;51.976;5.810;2023-10-31T11:05:52;16.2;69.3
78514;SHT31;67814;51.976;5.810;2023-10-31T11:08:23;16.2;69.3
78514;SHT31;67814;51.976;5.810;2023-10-31T11:10:53;16.3;70.0
78514;SHT31;67814;51.976;5.810;2023-10-31T11:13:24;16.3;69.1
78514;SHT31;67814;51.976;5.810;2023-10-31T11:15:57;16.3;69.6
78514;SHT31;67814;51.976;5.810;2023-10-31T11:18:30;16.3;69.4
78514;SHT31;67814;51.976;5.810;2023-10-31T11:20:59;16.4;69.6
78514;SHT31;67814;51.976;5.810;2023-10-31T11:23:29;16.4;70.4
78514;SHT31;67814;51.976;5.810;2023-10-31T11:25:59;16.4;69.5
78514;SHT31;67814;51.976;5.810;2023-10-31T11:28:32;16.4;69.7
78514;SHT31;67814;51.976;5.810;2023-10-31T11:31:01;16.5;71.3
78514;SHT31;67814;51.976;5.810;2023-10-31T11:33:30;16.5;69.7
78514;SHT31;67814;51.976;5.810;2023-10-31T11:36:03;16.6;68.9
78514;SHT31;67814;51.976;5.810;2023-10-31T11:38:35;16.7;67.6
78514;SHT31;67814;51.976;5.810;2023-10-31T11:41:05;16.7;67.0
78514;SHT31;67814;51.976;5.810;2023-10-31T11:43:54;16.7;66.3
78514;SHT31;67814;51.976;5.810;2023-10-31T11:46:24;16.7;66.3
78514;SHT31;67814;51.976;5.810;2023-10-31T11:48:54;16.7;66.2
78514;SHT31;67814;51.976;5.810;2023-10-31T11:51:23;16.7;65.9
78514;SHT31;67814;51.976;5.810;2023-10-31T11:53:54;16.7;66.2
78514;SHT31;67814;51.976;5.810;2023-10-31T11:56:24;16.6;66.0
78514;SHT31;67814;51.976;5.810;2023-10-31T11:59:03;16.6;66.0
78514;SHT31;67814;51.976;5.810;2023-10-31T12:01:33;16.6;66.6
78514;SHT31;67814;51.976;5.810;2023-10-31T12:04:02;16.6;66.3
78514;SHT31;67814;51.976;5.810;2023-10-31T12:06:30;16.6;65.5
78514;SHT31;67814;51.976;5.810;2023-10-31T12:09:01;16.6;66.2
78514;SHT31;67814;51.976;5.810;2023-10-31T12:11:30;16.6;65.5
78514;SHT31;67814;51.976;5.810;2023-10-31T12:14:00;16.6;65.3
78514;SHT31;67814;51.976;5.810;2023-10-31T12:16:33;16.5;65.5
78514;SHT31;67814;51.976;5.810;2023-10-31T12:19:03;16.5;65.9
78514;SHT31;67814;51.976;5.810;2023-10-31T12:21:37;16.5;65.4
78514;SHT31;67814;51.976;5.810;2023-10-31T12:24:07;16.5;65.5
78514;SHT31;67814;51.976;5.810;2023-10-31T12:26:37;16.4;65.7
78514;SHT31;67814;51.976;5.810;2023-10-31T12:29:11;16.3;65.3
78514;SHT31;67814;51.976;5.810;2023-10-31T12:31:46;16.3;65.6
78514;SHT31;67814;51.976;5.810;2023-10-31T12:34:16;16.2;65.4
78514;SHT31;67814;51.976;5.810;2023-10-31T12:36:47;16.2;65.7
78514;SHT31;67814;51.976;5.810;2023-10-31T12:39:18;16.1;67.0
78514;SHT31;67814;51.976;5.810;2023-10-31T12:41:49;16.1;66.4
78514;SHT31;67814;51.976;5.810;2023-10-31T12:44:25;16.1;66.6
78514;SHT31;67814;51.976;5.810;2023-10-31T12:46:54;16.1;66.7
78514;SHT31;67814;51.976;5.810;2023-10-31T12:49:23;16.1;67.5
78514;SHT31;67814;51.976;5.810;2023-10-31T12:52:00;16.0;67.3
78514;SHT31;67814;51.976;5.810;2023-10-31T12:54:35;16.0;67.5
78514;SHT31;67814;51.976;5.810;2023-10-31T12:57:05;16.0;67.1
78514;SHT31;67814;51.976;5.810;2023-10-31T12:59:36;16.0;67.2
78514;SHT31;67814;51.976;5.810;2023-10-31T13:02:07;16.0;68.2
78514;SHT31;67814;51.976;5.810;2023-10-31T13:04:37;16.0;68.1
78514;SHT31;67814;51.976;5.810;2023-10-31T13:07:07;16.0;68.1
78514;SHT31;67814;51.976;5.810;2023-10-31T13:09:37;16.0;67.8
78514;SHT31;67814;51.976;5.810;2023-10-31T13:12:09;16.0;67.7
78514;SHT31;67814;51.976;5.810;2023-10-31T13:14:39;16.0;67.6
78514;SHT31;67814;51.976;5.810;2023-10-31T13:17:07;16.0;68.0
78514;SHT31;67814;51.976;5.810;2023-10-31T13:19:36;16.0;67.3
78514;SHT31;67814;51.976;5.810;2023-10-31T13:22:05;16.0;67.0
78514;SHT31;67814;51.976;5.810;2023-10-31T13:24:33;16.0;66.8
78514;SHT31;67814;51.976;5.810;2023-10-31T13:27:02;16.0;66.8
78514;SHT31;67814;51.976;5.810;2023-10-31T13:29:34;16.1;66.9
78514;SHT31;67814;51.976;5.810;2023-10-31T13:32:03;16.1;67.0
78514;SHT31;67814;51.976;5.810;2023-10-31T13:34:32;16.1;66.5
78514;SHT31;67814;51.976;5.810;2023-10-31T13:37:01;16.1;66.7
78514;SHT31;67814;51.976;5.810;2023-10-31T13:39:30;16.1;66.4
78514;SHT31;67814;51.976;5.810;2023-10-31T13:41:59;16.1;65.9
78514;SHT31;67814;51.976;5.810;2023-10-31T13:44:29;16.1;66.7
78514;SHT31;67814;51.976;5.810;2023-10-31T13:46:58;16.1;66.9
78514;SHT31;67814;51.976;5.810;2023-10-31T13:49:27;16.1;66.2
78514;SHT31;67814;51.976;5.810;2023-10-31T13:51:55;16.1;67.4
78514;SHT31;67814;51.976;5.810;2023-10-31T13:54:24;16.1;66.2
78514;SHT31;67814;51.976;5.810;2023-10-31T13:56:53;16.1;65.8
78514;SHT31;67814;51.976;5.810;2023-10-31T13:59:22;16.1;66.2
78514;SHT31;67814;51.976;5.810;2023-10-31T14:01:50;16.1;65.2
78514;SHT31;67814;51.976;5.810;2023-10-31T14:04:19;16.1;64.5
78514;SHT31;67814;51.976;5.810;2023-10-31T14:06:48;16.0;64.6
78514;SHT31;67814;51.976;5.810;2023-10-31T14:09:18;16.0;65.4
78514;SHT31;67814;51.976;5.810;2023-10-31T14:11:47;16.0;65.4
78514;SHT31;67814;51.976;5.810;2023-10-31T14:14:18;16.0;64.7
78514;SHT31;67814;51.976;5.810;2023-10-31T14:16:47;16.0;64.5
78514;SHT31;67814;51.976;5.810;2023-10-31T14:19:16;15.9;65.5
78514;SHT31;67814;51.976;5.810;2023-10-31T14:21:44;15.9;66.3
78514;SHT31;67814;51.976;5.810;2023-10-31T14:24:15;15.9;64.9
78514;SHT31;67814;51.976;5.810;2023-10-31T14:26:44;15.9;66.3
78514;SHT31;67814;51.976;5.810;2023-10-31T14:29:12;15.9;65.8
78514;SHT31;67814;51.976;5.810;2023-10-31T14:31:42;15.8;65.9
78514;SHT31;67814;51.976;5.810;2023-10-31T14:34:11;15.8;65.7
78514;SHT31;67814;51.976;5.810;2023-10-31T14:36:39;15.8;66.0
78514;SHT31;67814;51.976;5.810;2023-10-31T14:39:08;15.8;66.9
78514;SHT31;67814;51.976;5.810;2023-10-31T14:41:38;15.7;66.9
78514;SHT31;67814;51.976;5.810;2023-10-31T14:44:06;15.7;67.4
78514;SHT31;67814;51.976;5.810;2023-10-31T14:46:36;15.7;67.2
78514;SHT31;67814;51.976;5.810;2023-10-31T14:49:06;15.7;67.5
78514;SHT31;67814;51.976;5.810;2023-10-31T14:51:34;15.7;67.7
78514;SHT31;67814;51.976;5.810;2023-10-31T14:54:03;15.7;66.1
78514;SHT31;67814;51.976;5.810;2023-10-31T14:56:32;15.6;66.0
78514;SHT31;67814;51.976;5.810;2023-10-31T14:59:03;15.6;65.9
78514;SHT31;67814;51.976;5.810;2023-10-31T15:01:32;15.6;65.6
78514;SHT31;67814;51.976;5.810;2023-10-31T15:04:00;15.6;65.6
78514;SHT31;67814;51.976;5.810;2023-10-31T15:06:29;15.6;66.1
78514;SHT31;67814;51.976;5.810;2023-10-31T15:09:00;15.5;65.9
78514;SHT31;67814;51.976;5.810;2023-10-31T15:11:29;15.5;66.5
78514;SHT31;67814;51.976;5.810;2023-10-31T15:13:57;15.5;66.0
78514;SHT31;67814;51.976;5.810;2023-10-31T15:16:26;15.5;66.7
78514;SHT31;67814;51.976;5.810;2023-10-31T15:18:55;15.5;66.9
78514;SHT31;67814;51.976;5.810;2023-10-31T15:21:23;15.5;67.0
78514;SHT31;67814;51.976;5.810;2023-10-31T15:23:52;15.5;66.3
78514;SHT31;67814;51.976;5.810;2023-10-31T15:26:22;15.5;66.2
78514;SHT31;67814;51.976;5.810;2023-10-31T15:28:53;15.5;66.7
78514;SHT31;67814;51.976;5.810;2023-10-31T15:31:23;15.5;67.0
78514;SHT31;67814;51.976;5.810;2023-10-31T15:33:52;15.5;67.4
78514;SHT31;67814;51.976;5.810;2023-10-31T15:36:20;15.5;67.1
78514;SHT31;67814;51.976;5.810;2023-10-31T15:38:49;15.5;67.1
78514;SHT31;67814;51.976;5.810;2023-10-31T15:41:18;15.4;68.3
78514;SHT31;67814;51.976;5.810;2023-10-31T15:43:47;15.4;68.2
78514;SHT31;67814;51.976;5.810;2023-10-31T15:46:16;15.4;67.9
78514;SHT31;67814;51.976;5.810;2023-10-31T15:48:47;15.4;68.4
78514;SHT31;67814;51.976;5.810;2023-10-31T15:51:16;15.4;69.3
78514;SHT31;67814;51.976;5.810;2023-10-31T15:53:44;15.4;69.2
78514;SHT31;67814;51.976;5.810;2023-10-31T15:56:13;15.4;69.6
78514;SHT31;67814;51.976;5.810;2023-10-31T15:58:41;15.3;69.6
78514;SHT31;67814;51.976;5.810;2023-10-31T16:01:10;15.3;69.7
78514;SHT31;67814;51.976;5.810;2023-10-31T16:03:38;15.3;70.1
78514;SHT31;67814;51.976;5.810;2023-10-31T16:06:07;15.3;70.0
78514;SHT31;67814;51.976;5.810;2023-10-31T16:08:39;15.3;70.1
78514;SHT31;67814;51.976;5.810;2023-10-31T16:11:09;15.2;70.4
78514;SHT31;67814;51.976;5.810;2023-10-31T16:13:38;15.2;70.3
78514;SHT31;67814;51.976;5.810;2023-10-31T16:16:10;15.2;70.4